Trinity, Alabama
Current Conditions -  °F | °C
As of 11:53 AM on Friday 21 Nov 2014 (Local Time) from KDCU Reporting Station
Clear Clear  
Wind Chill: 56°   Ceiling: Unl
Heat Index: 56°   Visibility: 10mi
Dew Point: 33°   Wind: 5mph
Humidity: 42%   Direction: 130°SE
Pressure: 30.4"   Gusts: NA
Location:  34.61°N, 87.09°W
Report Text: KDCU 211753Z AUTO 13004KT 10SM CLR 13/01 A3040 RMK AO2 SLP293 T01330006 10133 20039 58007
Loading
Personal Weather Stations






























Interactive Weather Map New forecast layout! Learn more

10-Day Weather Forecast

Advertisements
Track Severe Weather on mobile